Time;durP1;ratioP1;P1;durP2;ratioP2;P2;SDS_P1;SDS_P2;PMS_P1;PMS_P2;Temp;Humidity;BMP_temperature;BMP_pressure;BME280_temperature;BME280_humidity;BME280_pressure;Samples;Min_cycle;Max_cycle;Signal;HPM_P1;HPM_P2
2022/06/29 00:03:07;;;;;;;6.78;3.45;;;;;;;12.21;93.95;101429.19;10535869;28;20492;-78
2022/06/29 00:08:07;;;;;;;7.55;3.92;;;;;;;12.19;94.37;101422.13;10507004;27;20590;-78
2022/06/29 00:13:08;;;;;;;7.10;3.45;;;;;;;12.17;94.04;101420.22;10512965;27;20028;-77
2022/06/29 00:18:08;;;;;;;6.85;2.92;;;;;;;12.15;93.74;101417.56;10499989;28;20067;-77
2022/06/29 00:23:10;;;;;;;5.53;3.38;;;;;;;12.12;93.62;101413.84;10488367;28;20043;-77
2022/06/29 00:28:11;;;;;;;5.45;3.55;;;;;;;12.11;94.09;101419.94;10520916;28;20043;-77
2022/06/29 00:33:11;;;;;;;4.97;3.03;;;;;;;12.05;94.14;101415.28;10527754;28;20124;-78
2022/06/29 00:38:12;;;;;;;6.50;3.13;;;;;;;11.98;95.37;101416.66;10481684;28;20036;-78
2022/06/29 00:43:12;;;;;;;9.95;4.38;;;;;;;11.97;97.09;101408.72;10528077;27;20043;-77
2022/06/29 00:48:13;;;;;;;7.15;3.85;;;;;;;11.93;97.91;101406.75;10498622;28;20033;-77
2022/06/29 00:53:15;;;;;;;8.27;3.33;;;;;;;11.81;97.61;101402.69;10529171;28;20133;-78
2022/06/29 00:58:15;;;;;;;7.90;4.32;;;;;;;11.68;97.41;101406.38;10503016;28;20047;-77
2022/06/29 01:03:16;;;;;;;5.88;3.42;;;;;;;11.59;98.13;101409.44;10493173;28;20446;-77
2022/06/29 01:08:16;;;;;;;8.38;4.32;;;;;;;11.54;98.42;101402.16;10507214;28;20500;-77
2022/06/29 01:13:17;;;;;;;9.43;4.00;;;;;;;11.52;99.85;101398.53;10488366;28;20040;-78
2022/06/29 01:18:17;;;;;;;6.40;4.38;;;;;;;11.46;100.00;101392.16;10471607;28;20431;-77
2022/06/29 01:23:18;;;;;;;8.25;5.05;;;;;;;11.41;100.00;101390.13;10487178;28;20060;-79
2022/06/29 01:28:18;;;;;;;5.57;3.97;;;;;;;11.44;100.00;101391.19;10509402;28;20063;-78
2022/06/29 01:33:19;;;;;;;7.15;4.88;;;;;;;11.39;100.00;101390.03;10520321;28;20042;-78
2022/06/29 01:38:20;;;;;;;8.95;5.22;;;;;;;11.36;100.00;101395.13;10489213;28;20046;-77
2022/06/29 01:43:20;;;;;;;9.15;4.60;;;;;;;11.29;100.00;101400.84;10491250;28;20044;-78
2022/06/29 01:48:21;;;;;;;7.25;4.95;;;;;;;11.30;100.00;101397.41;10524591;28;20036;-77
2022/06/29 01:53:22;;;;;;;8.73;4.90;;;;;;;11.30;100.00;101384.31;10502475;28;20403;-78
2022/06/29 01:58:23;;;;;;;7.10;5.03;;;;;;;11.33;100.00;101389.72;10484190;28;20044;-78
2022/06/29 02:03:23;;;;;;;9.60;4.97;;;;;;;11.27;100.00;101387.69;10490578;28;20496;-78
2022/06/29 02:08:24;;;;;;;7.13;4.78;;;;;;;11.19;100.00;101381.13;10488901;28;20051;-78
2022/06/29 02:13:24;;;;;;;9.98;5.45;;;;;;;11.12;100.00;101379.00;10520634;28;20041;-78
2022/06/29 02:18:25;;;;;;;7.57;5.50;;;;;;;10.98;100.00;101360.84;10484427;28;20033;-77
2022/06/29 02:23:25;;;;;;;9.82;5.05;;;;;;;10.96;100.00;101361.56;10470740;28;20041;-77
2022/06/29 02:28:26;;;;;;;18.13;5.10;;;;;;;10.86;100.00;101357.56;10508068;28;20036;-78
2022/06/29 02:38:45;;;;;;;9.80;6.00;;;;;;;10.74;100.00;101355.16;10524513;28;20364;-77
2022/06/29 02:43:46;;;;;;;8.10;5.43;;;;;;;10.68;100.00;101347.88;10489225;28;20040;-77
2022/06/29 02:48:47;;;;;;;7.60;5.05;;;;;;;10.62;100.00;101344.00;10522398;28;20028;-78
2022/06/29 02:53:47;;;;;;;8.63;5.65;;;;;;;10.60;100.00;101348.25;10518466;28;20135;-77
2022/06/29 02:58:48;;;;;;;8.73;5.70;;;;;;;10.54;100.00;101344.47;10515459;28;20044;-77
2022/06/29 03:03:48;;;;;;;8.18;5.88;;;;;;;10.50;100.00;101337.28;10508401;28;20036;-78
2022/06/29 03:08:49;;;;;;;8.80;6.05;;;;;;;10.47;100.00;101338.84;10433569;28;20503;-77
2022/06/29 03:13:49;;;;;;;10.70;5.68;;;;;;;10.38;100.00;101337.47;10446527;28;20097;-78
2022/06/29 03:18:50;;;;;;;8.43;5.82;;;;;;;10.34;100.00;101327.66;10480560;28;20500;-77
2022/06/29 03:23:51;;;;;;;8.05;6.45;;;;;;;10.33;100.00;101320.63;10457569;28;20052;-78
2022/06/29 03:28:52;;;;;;;12.13;8.45;;;;;;;10.36;100.00;101318.16;10441707;28;20450;-78
2022/06/29 03:33:53;;;;;;;12.77;9.00;;;;;;;10.35;100.00;101313.75;10445033;28;20053;-78
2022/06/29 03:38:53;;;;;;;11.30;8.63;;;;;;;10.32;100.00;101312.66;10459337;28;20303;-78
2022/06/29 03:43:54;;;;;;;10.70;7.47;;;;;;;10.33;100.00;101311.84;10477518;28;20033;-78
2022/06/29 03:48:54;;;;;;;10.63;7.28;;;;;;;10.39;100.00;101307.91;10398191;28;20039;-77
2022/06/29 03:53:55;;;;;;;12.23;7.90;;;;;;;10.46;100.00;101306.53;10467857;28;20051;-77
2022/06/29 03:58:56;;;;;;;12.93;8.52;;;;;;;10.49;100.00;101308.41;10455008;28;20488;-77
2022/06/29 04:03:58;;;;;;;9.98;8.30;;;;;;;10.52;100.00;101306.84;10493471;28;20036;-77
2022/06/29 04:09:04;;;;;;;11.75;8.13;;;;;;;10.58;100.00;101311.53;10520705;28;20040;-77
2022/06/29 04:14:33;;;;;;;11.38;7.93;;;;;;;10.76;100.00;101308.13;10506519;28;20040;-77
2022/06/29 04:19:35;;;;;;;11.30;6.03;;;;;;;10.78;100.00;101296.00;10480515;28;20060;-78
2022/06/29 04:24:43;;;;;;;13.45;8.52;;;;;;;10.98;100.00;101302.28;10516238;28;20388;-77
2022/06/29 04:29:47;;;;;;;11.40;6.72;;;;;;;11.36;100.00;101292.03;10459676;28;20056;-77
2022/06/29 04:34:52;;;;;;;9.60;6.88;;;;;;;11.63;100.00;101303.00;10500965;28;20131;-77
2022/06/29 04:40:03;;;;;;;11.15;7.25;;;;;;;11.69;100.00;101289.31;10521451;28;20479;-77
2022/06/29 04:50:40;;;;;;;7.38;6.18;;;;;;;11.58;100.00;101279.19;10478858;28;20123;-77
2022/06/29 04:55:44;;;;;;;9.05;5.47;;;;;;;11.94;100.00;101277.41;10463179;28;20049;-77
2022/06/29 05:00:53;;;;;;;6.97;5.50;;;;;;;12.65;100.00;101274.59;10484077;28;20048;-79
2022/06/29 05:06:00;;;;;;;6.13;4.25;;;;;;;13.40;100.00;101271.75;10518589;28;20040;-77
2022/06/29 05:11:05;;;;;;;6.07;3.80;;;;;;;14.02;100.00;101279.59;10505731;28;20496;-77
2022/06/29 05:16:10;;;;;;;6.20;3.50;;;;;;;14.80;93.83;101270.31;10500931;28;20161;-77
2022/06/29 05:21:12;;;;;;;6.72;4.35;;;;;;;15.82;86.19;101258.84;10512875;28;20423;-77
2022/06/29 05:26:14;;;;;;;5.18;3.17;;;;;;;16.64;81.25;101264.00;10446512;28;20041;-78
2022/06/29 05:31:19;;;;;;;6.03;3.20;;;;;;;16.68;81.47;101260.59;10482678;28;20063;-77
2022/06/29 05:36:35;;;;;;;4.82;2.80;;;;;;;16.40;83.51;101270.34;10507201;28;20123;-78
2022/06/29 05:41:36;;;;;;;5.75;3.75;;;;;;;16.20;84.94;101269.75;10513956;28;20547;-77
2022/06/29 05:46:43;;;;;;;12.73;4.53;;;;;;;16.36;84.88;101265.81;10527849;28;20434;-77
2022/06/29 05:51:46;;;;;;;12.10;4.38;;;;;;;16.58;83.73;101269.09;10493692;28;20049;-77
2022/06/29 05:56:49;;;;;;;5.05;3.35;;;;;;;16.88;83.74;101268.19;10484459;28;20373;-76
2022/06/29 06:01:49;;;;;;;6.68;4.57;;;;;;;17.23;81.39;101262.13;10497848;28;20381;-77
2022/06/29 06:06:50;;;;;;;5.55;3.17;;;;;;;17.84;77.56;101262.75;10471957;28;20127;-76
2022/06/29 06:11:51;;;;;;;26.60;3.92;;;;;;;18.39;77.34;101259.63;10504087;28;20378;-76
2022/06/29 06:16:51;;;;;;;4.82;2.83;;;;;;;18.56;76.71;101261.72;10470372;28;20135;-77
2022/06/29 06:21:52;;;;;;;5.68;4.18;;;;;;;18.66;76.63;101265.50;10483500;28;20028;-77
2022/06/29 06:26:52;;;;;;;8.63;3.67;;;;;;;19.50;77.91;101260.91;10442452;28;20051;-78
2022/06/29 06:31:53;;;;;;;11.87;4.73;;;;;;;21.34;65.42;101248.28;10441986;28;20126;-77
2022/06/29 06:36:53;;;;;;;9.10;4.83;;;;;;;22.16;61.03;101258.69;10463023;28;20124;-78
2022/06/29 06:41:54;;;;;;;6.83;4.23;;;;;;;24.22;54.38;101250.16;10465333;28;20115;-77
2022/06/29 06:46:54;;;;;;;6.70;3.70;;;;;;;25.67;53.34;101252.06;10447739;28;20534;-75
2022/06/29 06:51:55;;;;;;;6.00;3.58;;;;;;;26.68;49.00;101243.78;10442767;28;20037;-74
2022/06/29 06:56:55;;;;;;;8.73;4.25;;;;;;;26.97;46.89;101239.84;10452169;28;20569;-76
2022/06/29 07:01:56;;;;;;;;;;;;;;;27.83;42.40;101240.22;10446337;28;20029;-77
2022/06/29 07:06:56;;;;;;;10.37;4.43;;;;;;;28.17;43.33;101233.34;10433900;28;19917;-77
2022/06/29 07:11:57;;;;;;;7.85;2.83;;;;;;;28.93;41.92;101234.41;10453573;28;20448;-77
2022/06/29 07:16:57;;;;;;;8.88;2.97;;;;;;;29.18;41.99;101225.75;10505542;28;20032;-77
2022/06/29 07:21:58;;;;;;;5.25;2.28;;;;;;;29.80;38.46;101231.41;10511774;28;20039;-76
2022/06/29 07:26:58;;;;;;;4.63;2.47;;;;;;;30.26;38.63;101226.53;10489779;28;20080;-77
2022/06/29 07:31:59;;;;;;;9.23;3.83;;;;;;;30.03;39.50;101237.06;10490686;27;20039;-76
2022/06/29 07:36:59;;;;;;;8.73;4.03;;;;;;;30.06;36.61;101241.47;10506019;28;20064;-76
2022/06/29 07:42:00;;;;;;;8.82;5.38;;;;;;;30.18;40.16;101238.44;10472761;28;20456;-76
2022/06/29 07:47:00;;;;;;;11.27;4.82;;;;;;;31.05;36.78;101230.44;10491544;28;20545;-76
2022/06/29 07:52:01;;;;;;;10.02;4.88;;;;;;;31.01;37.04;101226.06;10472656;27;20067;-77
2022/06/29 07:57:02;;;;;;;10.23;5.53;;;;;;;31.42;33.16;101231.06;10489007;28;20103;-76
2022/06/29 08:02:02;;;;;;;6.95;3.85;;;;;;;30.40;35.37;101226.13;10489811;28;20461;-77
2022/06/29 08:07:03;;;;;;;;;;;;;;;30.40;35.13;101227.00;10472880;28;20151;-76
2022/06/29 08:12:04;;;;;;;6.00;3.27;;;;;;;29.91;34.32;101217.59;10491009;28;19963;-76
2022/06/29 08:17:04;;;;;;;7.97;3.13;;;;;;;26.84;44.94;101222.13;10489340;28;20035;-76
2022/06/29 08:22:05;;;;;;;6.27;3.67;;;;;;;25.13;48.14;101232.78;10488365;28;20028;-76
2022/06/29 08:27:05;;;;;;;8.00;2.97;;;;;;;24.38;46.65;101229.63;10489601;28;20182;-76
2022/06/29 08:32:06;;;;;;;4.03;2.80;;;;;;;24.21;52.93;101227.00;10487297;28;20476;-76
2022/06/29 08:37:07;;;;;;;7.47;3.57;;;;;;;24.17;51.60;101230.56;10488250;28;20037;-76
2022/06/29 08:42:07;;;;;;;7.93;3.23;;;;;;;24.12;48.90;101232.38;10489164;28;20025;-76
2022/06/29 08:47:08;;;;;;;5.53;3.57;;;;;;;24.29;48.38;101232.34;10488665;28;20393;-76
2022/06/29 08:52:09;;;;;;;6.20;2.63;;;;;;;24.17;49.50;101228.81;10487961;28;20043;-76
2022/06/29 08:57:11;;;;;;;7.27;2.50;;;;;;;24.63;49.65;101229.50;10469819;28;20478;-76
2022/06/29 09:02:11;;;;;;;11.38;4.38;;;;;;;25.00;47.41;101226.66;10486702;28;20044;-76
2022/06/29 09:07:12;;;;;;;5.43;3.33;;;;;;;25.31;45.76;101228.19;10470112;28;20380;-76
2022/06/29 09:12:17;;;;;;;5.90;2.63;;;;;;;25.39;48.22;101231.69;10486167;28;20246;-76
2022/06/29 09:17:18;;;;;;;3.83;2.30;;;;;;;25.57;48.80;101232.47;10487903;28;20028;-77
2022/06/29 09:22:18;;;;;;;9.23;3.53;;;;;;;25.93;48.63;101239.28;10468800;28;20491;-76
2022/06/29 09:27:19;;;;;;;3.60;2.33;;;;;;;26.28;42.12;101229.09;10503338;28;20060;-76
2022/06/29 09:32:21;;;;;;;3.90;2.20;;;;;;;26.75;41.96;101229.38;10486890;28;20128;-76
2022/06/29 09:37:22;;;;;;;2.85;1.92;;;;;;;28.22;41.63;101219.78;10487266;28;20041;-76
2022/06/29 09:42:26;;;;;;;4.32;1.90;;;;;;;29.10;38.19;101215.16;10519250;28;20028;-76
2022/06/29 09:47:27;;;;;;;4.00;2.65;;;;;;;30.77;36.07;101216.94;10488509;28;20123;-78
2022/06/29 09:52:28;;;;;;;6.40;2.38;;;;;;;29.84;34.68;101214.19;10467477;28;20039;-76
2022/06/29 09:57:29;;;;;;;6.22;2.15;;;;;;;28.51;45.65;101219.19;10486220;28;20097;-76
2022/06/29 10:02:43;;;;;;;6.20;2.80;;;;;;;28.39;42.06;101216.75;10468689;28;20064;-77
2022/06/29 10:07:45;;;;;;;4.53;2.05;;;;;;;29.36;37.80;101216.31;10485172;28;20377;-76
2022/06/29 10:18:35;;;;;;;4.63;2.22;;;;;;;33.52;32.00;101209.56;10485514;28;20040;-76
2022/06/29 10:23:54;;;;;;;5.20;2.30;;;;;;;34.32;29.03;101206.91;10486285;28;20047;-77
2022/06/29 10:28:55;;;;;;;7.28;2.60;;;;;;;34.48;29.78;101205.25;10451051;28;20560;-77
2022/06/29 10:33:55;;;;;;;4.45;2.00;;;;;;;34.00;29.70;101201.16;10503729;28;20028;-76
2022/06/29 10:39:08;;;;;;;4.32;2.58;;;;;;;33.52;29.03;101202.31;10435751;28;20108;-77
2022/06/29 10:44:09;;;;;;;2.95;1.58;;;;;;;33.53;27.54;101190.53;10503864;28;20039;-76
2022/06/29 10:49:21;;;;;;;2.60;1.77;;;;;;;33.34;24.12;101189.53;10510309;28;20040;-76
2022/06/29 10:54:26;;;;;;;3.90;1.85;;;;;;;33.83;25.86;101189.19;10459802;28;20083;-76
2022/06/29 10:59:37;;;;;;;3.75;1.63;;;;;;;33.44;26.05;101180.06;10466713;28;20476;-76
2022/06/29 11:04:37;;;;;;;;;;;;;;;34.42;24.33;101159.34;10467913;28;20045;-77
2022/06/29 11:20:23;;;;;;;3.33;2.17;;;;;;;33.05;24.01;101151.84;10524719;28;20032;-77
2022/06/29 11:25:24;;;;;;;;;;;;;;;33.15;22.84;101144.22;10522298;28;20483;-77
2022/06/29 11:30:25;;;;;;;5.00;1.43;;;;;;;32.87;23.90;101144.50;10477884;28;19920;-76
2022/06/29 11:35:25;;;;;;;;;;;;;;;33.29;24.03;101137.31;10484841;28;20092;-76
2022/06/29 11:40:36;;;;;;;2.33;1.33;;;;;;;32.75;23.87;101135.91;10509156;28;20367;-76
2022/06/29 11:45:47;;;;;;;2.65;1.40;;;;;;;32.57;25.31;101123.13;10507429;28;20036;-77
2022/06/29 11:50:51;;;;;;;4.43;1.50;;;;;;;33.16;23.81;101126.13;10523429;28;20123;-77
2022/06/29 11:55:52;;;;;;;3.97;1.55;;;;;;;33.27;23.73;101118.38;10507025;28;20036;-77
2022/06/29 12:00:53;;;;;;;;;;;;;;;33.20;23.43;101109.66;10506896;28;20040;-77
2022/06/29 12:05:57;;;;;;;2.30;1.35;;;;;;;33.34;23.89;101116.31;10503493;28;19920;-77
2022/06/29 12:10:57;;;;;;;1.88;1.50;;;;;;;33.27;24.56;101110.25;10489434;28;20123;-76
2022/06/29 12:15:58;;;;;;;;;;;;;;;33.20;25.52;101103.34;10489515;28;20021;-77
2022/06/29 12:20:58;;;;;;;4.10;1.70;;;;;;;33.71;24.35;101092.06;10488609;28;19916;-76
2022/06/29 12:25:59;;;;;;;;;;;;;;;33.32;26.20;101097.38;10488190;28;20067;-76
2022/06/29 12:30:59;;;;;;;2.10;1.70;;;;;;;34.02;25.00;101082.50;10481713;28;19921;-77
2022/06/29 12:36:00;;;;;;;;;;;;;;;33.80;24.70;101089.81;10449102;28;20501;-76
2022/06/29 12:41:01;;;;;;;12.80;10.30;;;;;;;32.39;25.72;101085.00;10471485;28;20007;-80
2022/06/29 12:46:02;;;;;;;3.35;2.33;;;;;;;33.50;27.51;101079.44;10461088;28;20047;-78
2022/06/29 12:51:02;;;;;;;;;;;;;;;33.93;25.62;101084.72;10460968;28;20470;-76
2022/06/29 12:56:04;;;;;;;3.07;1.37;;;;;;;33.25;23.98;101076.91;10443530;28;19921;-77
2022/06/29 13:01:04;;;;;;;5.80;1.60;;;;;;;32.94;25.15;101078.25;10429011;28;20041;-76
2022/06/29 13:06:05;;;;;;;;;;;;;;;32.82;27.77;101079.66;10447245;28;20041;-76
2022/06/29 13:11:06;;;;;;;6.10;2.03;;;;;;;31.84;27.81;101070.00;10478802;28;19940;-76
2022/06/29 13:16:07;;;;;;;;;;;;;;;32.64;26.48;101073.16;10428777;28;20035;-76
2022/06/29 13:21:08;;;;;;;1.63;1.23;;;;;;;31.44;26.68;101075.06;10461443;28;20385;-76
2022/06/29 13:26:08;;;;;;;3.00;1.97;;;;;;;30.81;32.49;101071.84;10428060;28;20119;-77
2022/06/29 13:31:12;;;;;;;2.77;1.80;;;;;;;32.40;26.80;101066.94;10444982;28;20676;-76
2022/06/29 13:36:12;;;;;;;9.45;5.72;;;;;;;32.57;26.96;101067.13;10456351;28;20043;-77
2022/06/29 13:41:15;;;;;;;10.48;2.67;;;;;;;33.51;25.16;101066.75;10486188;28;20120;-76
2022/06/29 13:46:16;;;;;;;2.78;1.33;;;;;;;33.72;23.91;101066.69;10445234;28;20033;-76
2022/06/29 13:51:16;;;;;;;;;;;;;;;33.68;26.72;101060.53;10442570;28;20491;-76
2022/06/29 13:56:19;;;;;;;2.90;1.50;;;;;;;33.38;25.12;101052.84;10442312;28;20295;-76
2022/06/29 14:01:19;;;;;;;3.70;1.67;;;;;;;33.33;25.28;101061.16;10425979;28;20040;-76
2022/06/29 14:06:20;;;;;;;;;;;;;;;33.43;24.57;101052.66;10426074;28;20396;-76
2022/06/29 14:11:20;;;;;;;5.47;1.90;;;;;;;33.34;25.70;101046.66;10466400;28;19927;-77
2022/06/29 14:16:21;;;;;;;;;;;;;;;33.32;24.68;101043.13;10474307;28;20064;-77
2022/06/29 14:21:21;;;;;;;5.73;4.57;;;;;;;33.48;25.89;101045.19;10439270;28;20293;-76
2022/06/29 14:26:22;;;;;;;;;;;;;;;33.02;28.00;101037.28;10443243;28;20041;-77
2022/06/29 14:31:23;;;;;;;5.10;1.50;;;;;;;32.40;26.58;101032.63;10442626;28;19917;-76
2022/06/29 14:36:23;;;;;;;2.63;1.60;;;;;;;31.18;30.99;101025.53;10440174;28;20090;-76
2022/06/29 14:41:24;;;;;;;3.15;1.85;;;;;;;30.23;29.93;101024.19;10439185;28;20041;-75
2022/06/29 14:46:24;;;;;;;6.05;1.73;;;;;;;30.04;31.48;101016.69;10438511;28;20075;-75
2022/06/29 14:51:26;;;;;;;3.67;1.60;;;;;;;30.00;30.75;101018.63;10439887;28;20041;-76
2022/06/29 14:56:27;;;;;;;3.67;1.75;;;;;;;29.95;30.99;101017.84;10440152;28;20268;-76
2022/06/29 15:01:28;;;;;;;2.17;1.50;;;;;;;29.09;31.18;101008.63;10420783;28;20489;-76
2022/06/29 15:06:28;;;;;;;25.33;19.60;;;;;;;28.21;35.41;101011.75;10437652;28;20408;-75
2022/06/29 15:11:29;;;;;;;5.33;2.40;;;;;;;27.99;37.12;101005.94;10435907;28;20048;-76
2022/06/29 15:16:29;;;;;;;3.07;1.77;;;;;;;27.85;40.06;101004.44;10437451;28;20045;-75
2022/06/29 15:21:30;;;;;;;2.97;1.77;;;;;;;27.61;33.60;101000.50;10478905;28;20087;-78
2022/06/29 15:26:31;;;;;;;8.00;2.22;;;;;;;27.35;38.59;101001.91;10464883;28;20032;-75
2022/06/29 15:31:33;;;;;;;6.90;2.43;;;;;;;27.20;36.51;100992.31;10481019;28;20399;-77
2022/06/29 15:41:53;;;;;;;3.85;1.98;;;;;;;27.11;42.27;100989.81;10480486;28;20033;-77
2022/06/29 15:46:53;;;;;;;4.50;1.67;;;;;;;27.12;39.72;100983.53;10530634;28;20483;-77
2022/06/29 15:51:54;;;;;;;7.20;1.85;;;;;;;27.15;35.52;100983.47;10516161;28;20051;-76
2022/06/29 15:56:55;;;;;;;7.53;1.97;;;;;;;27.02;39.51;100979.25;10498100;28;20453;-77
2022/06/29 16:01:56;;;;;;;4.80;2.03;;;;;;;26.81;35.63;100974.25;10494668;28;20148;-77
2022/06/29 16:06:56;;;;;;;2.77;1.70;;;;;;;26.82;37.31;100967.06;10490026;28;20093;-79
2022/06/29 16:12:06;;;;;;;10.13;3.17;;;;;;;26.71;38.73;100958.31;10519838;28;20105;-78
2022/06/29 16:17:07;;;;;;;3.50;1.50;;;;;;;26.67;37.88;100962.88;10530966;28;20040;-77
2022/06/29 16:22:08;;;;;;;5.73;1.90;;;;;;;26.42;38.86;100960.63;10489637;28;20047;-77
2022/06/29 16:27:09;;;;;;;;;;;;;;;26.49;37.18;100964.97;10492333;27;20059;-78
2022/06/29 16:32:10;;;;;;;5.32;2.40;;;;;;;26.40;38.61;100954.41;10448301;28;20015;-78
2022/06/29 16:37:10;;;;;;;8.50;2.70;;;;;;;26.26;40.92;100951.06;10451083;28;20044;-77
2022/06/29 16:42:11;;;;;;;3.73;1.83;;;;;;;26.28;40.88;100951.91;10489549;28;20509;-78
2022/06/29 16:47:11;;;;;;;4.07;1.73;;;;;;;26.16;41.65;100943.16;10487041;28;20044;-78
2022/06/29 16:52:12;;;;;;;5.53;1.90;;;;;;;25.91;42.44;100946.19;10488209;28;20036;-77
2022/06/29 16:57:12;;;;;;;5.67;2.63;;;;;;;26.02;41.32;100946.00;10486672;28;20043;-77
2022/06/29 17:02:13;;;;;;;6.07;2.10;;;;;;;25.95;50.02;100944.34;10488819;28;20068;-77
2022/06/29 17:07:13;;;;;;;5.23;2.60;;;;;;;25.77;49.61;100938.34;10486214;28;20484;-78
2022/06/29 17:12:14;;;;;;;4.47;2.07;;;;;;;25.33;48.02;100939.78;10488736;28;20044;-78
2022/06/29 17:17:14;;;;;;;5.60;2.70;;;;;;;24.91;52.51;100942.97;10489521;28;20510;-78
2022/06/29 17:22:15;;;;;;;3.70;2.07;;;;;;;24.74;53.34;100940.47;10486322;28;20040;-78
2022/06/29 17:27:15;;;;;;;4.10;2.57;;;;;;;24.66;57.61;100932.50;10486958;28;20033;-78
2022/06/29 17:32:16;;;;;;;4.40;1.70;;;;;;;24.85;54.79;100930.53;10487747;28;20044;-77
2022/06/29 17:37:18;;;;;;;4.47;3.50;;;;;;;24.99;54.46;100918.78;10508961;28;20050;-78
2022/06/29 17:42:18;;;;;;;;;;;;;;;24.92;56.38;100915.31;10528025;28;20066;-77
2022/06/29 17:47:19;;;;;;;6.93;2.05;;;;;;;24.75;57.08;100916.38;10506234;28;20436;-77
2022/06/29 17:52:19;;;;;;;4.10;2.10;;;;;;;24.68;56.24;100911.94;10517459;28;20201;-78
2022/06/29 17:57:20;;;;;;;10.90;2.70;;;;;;;24.48;58.88;100906.78;10502801;28;20040;-78
2022/06/29 18:02:30;;;;;;;7.47;3.57;;;;;;;24.19;62.48;100905.25;10481264;28;20126;-77
2022/06/29 18:07:31;;;;;;;10.07;2.55;;;;;;;23.75;57.41;100900.19;10493113;28;20040;-78
2022/06/29 18:12:31;;;;;;;6.03;3.27;;;;;;;23.38;59.77;100907.56;10503508;28;20044;-78
2022/06/29 18:17:34;;;;;;;;;;;;;;;22.96;63.52;100899.66;10483000;28;20098;-78
2022/06/29 18:22:35;;;;;;;3.17;2.23;;;;;;;22.64;65.70;100908.63;10496195;28;19926;-78
2022/06/29 18:27:36;;;;;;;4.13;2.93;;;;;;;22.34;70.59;100899.75;10483452;28;20036;-78
2022/06/29 18:32:37;;;;;;;4.37;2.40;;;;;;;22.08;67.73;100906.88;10519048;28;20274;-78
2022/06/29 18:37:37;;;;;;;5.67;2.13;;;;;;;22.00;67.51;100903.31;10525774;28;20127;-79
2022/06/29 18:42:38;;;;;;;5.67;3.53;;;;;;;21.85;75.27;100905.06;10489091;28;20047;-78
2022/06/29 18:47:38;;;;;;;9.63;4.70;;;;;;;21.69;76.53;100906.78;10483618;28;20044;-78
2022/06/29 18:52:39;;;;;;;7.07;3.67;;;;;;;21.62;77.92;100907.63;10522094;28;20048;-78
2022/06/29 18:57:40;;;;;;;5.33;3.57;;;;;;;21.58;78.06;100910.31;10491344;28;20101;-78
2022/06/29 19:02:41;;;;;;;5.13;2.73;;;;;;;21.37;74.57;100909.34;10482067;28;20131;-76
2022/06/29 19:07:42;;;;;;;5.68;2.75;;;;;;;21.21;67.57;100906.63;10481859;28;20052;-77
2022/06/29 19:12:43;;;;;;;9.35;3.35;;;;;;;21.11;70.31;100912.78;10490780;28;20041;-79
2022/06/29 19:17:44;;;;;;;4.03;3.10;;;;;;;21.08;75.91;100911.00;10490600;28;20122;-78
2022/06/29 19:22:44;;;;;;;5.68;2.70;;;;;;;20.80;72.47;100916.16;10530735;28;20036;-77
2022/06/29 19:27:45;;;;;;;5.05;2.83;;;;;;;20.84;75.58;100917.09;10531715;28;20132;-77
2022/06/29 19:32:45;;;;;;;5.57;3.13;;;;;;;20.75;77.30;100922.31;10533622;28;20540;-77
2022/06/29 19:37:46;;;;;;;7.25;3.38;;;;;;;20.58;72.47;100922.19;10521980;28;20088;-77
2022/06/29 19:42:46;;;;;;;6.72;3.40;;;;;;;20.37;72.43;100927.34;10502003;28;20029;-77
2022/06/29 19:47:47;;;;;;;4.55;3.15;;;;;;;20.27;74.30;100928.16;10509172;28;20040;-77
2022/06/29 19:52:47;;;;;;;6.05;3.17;;;;;;;20.14;73.18;100929.81;10534101;28;20032;-77
2022/06/29 19:57:48;;;;;;;6.68;3.08;;;;;;;19.98;73.13;100938.50;10511314;28;20033;-77
2022/06/29 20:02:49;;;;;;;6.13;3.03;;;;;;;19.77;73.95;100932.06;10490304;28;20043;-77
2022/06/29 20:07:49;;;;;;;3.70;2.80;;;;;;;19.60;75.14;100942.50;10503158;28;20048;-77
2022/06/29 20:12:50;;;;;;;6.05;3.58;;;;;;;19.58;75.72;100950.44;10532124;28;20122;-77
2022/06/29 20:17:50;;;;;;;10.05;5.18;;;;;;;19.58;81.40;100950.44;10510781;28;20043;-77
2022/06/29 20:22:52;;;;;;;4.25;3.15;;;;;;;19.35;77.79;100955.47;10489303;28;20143;-77
2022/06/29 20:27:52;;;;;;;5.83;3.90;;;;;;;19.23;78.52;100945.59;10502522;28;20044;-78
2022/06/29 20:32:53;;;;;;;7.18;3.80;;;;;;;19.06;80.75;100954.19;10488499;28;20298;-77
2022/06/29 20:37:53;;;;;;;8.65;4.10;;;;;;;18.86;81.21;100953.91;10540779;28;20123;-77
2022/06/29 20:42:54;;;;;;;6.90;4.43;;;;;;;18.68;84.23;100962.44;10513015;28;20039;-77
2022/06/29 20:47:59;;;;;;;5.68;3.90;;;;;;;18.46;81.75;100956.78;10508142;28;20063;-77
2022/06/29 20:52:59;;;;;;;6.95;3.83;;;;;;;18.32;84.08;100960.97;10487488;28;20377;-77
2022/06/29 20:58:00;;;;;;;8.10;4.75;;;;;;;18.12;85.24;100961.50;10509293;28;20040;-77
2022/06/29 21:03:00;;;;;;;8.23;4.25;;;;;;;17.95;85.87;100954.97;10531458;28;20111;-77
2022/06/29 21:08:01;;;;;;;6.60;4.53;;;;;;;17.76;85.10;100959.91;10506209;28;20075;-77
2022/06/29 21:13:02;;;;;;;6.38;4.97;;;;;;;17.59;84.76;100963.13;10485859;28;20112;-77
2022/06/29 21:18:02;;;;;;;5.22;4.20;;;;;;;17.36;84.80;100957.38;10489841;27;20036;-77
2022/06/29 21:23:03;;;;;;;5.22;4.43;;;;;;;17.21;85.50;100968.50;10485282;27;20037;-76
2022/06/29 21:28:03;;;;;;;5.47;4.50;;;;;;;17.09;85.97;100968.22;10509363;28;20040;-77
2022/06/29 21:33:04;;;;;;;8.73;4.80;;;;;;;17.01;87.05;100965.41;10528830;28;20482;-77
2022/06/29 21:38:04;;;;;;;8.43;4.78;;;;;;;16.99;89.52;100968.00;10495412;28;20123;-77
2022/06/29 21:43:05;;;;;;;8.60;5.07;;;;;;;16.90;89.00;100967.78;10484569;28;20059;-77
2022/06/29 21:48:06;;;;;;;9.30;5.57;;;;;;;16.82;89.07;100970.25;10512003;28;20050;-77
2022/06/29 21:53:06;;;;;;;6.18;5.07;;;;;;;16.76;89.87;100964.81;10515423;28;20046;-77
2022/06/29 21:58:07;;;;;;;8.90;4.97;;;;;;;16.66;89.94;100955.75;10497152;28;20048;-77
2022/06/29 22:03:07;;;;;;;9.35;6.82;;;;;;;16.62;89.33;100961.81;10486190;27;20124;-76
2022/06/29 22:08:08;;;;;;;10.48;5.75;;;;;;;16.49;90.62;100967.66;10508604;28;20498;-77
2022/06/29 22:13:08;;;;;;;7.80;6.15;;;;;;;16.49;93.60;100970.31;10527770;28;20025;-77
2022/06/29 22:18:09;;;;;;;7.20;5.80;;;;;;;16.48;94.34;100977.34;10506302;28;20617;-76
2022/06/29 22:23:10;;;;;;;10.48;6.35;;;;;;;16.39;92.98;100972.72;10483063;28;20029;-76
2022/06/29 22:28:11;;;;;;;9.85;6.40;;;;;;;16.42;92.73;100974.56;10503591;28;20036;-77
2022/06/29 22:33:12;;;;;;;8.77;5.60;;;;;;;16.54;92.02;100985.44;10508128;28;20464;-76
2022/06/29 22:38:13;;;;;;;7.35;5.78;;;;;;;16.67;91.42;100969.88;10506064;28;20047;-77
2022/06/29 22:43:14;;;;;;;9.75;6.18;;;;;;;16.75;89.93;100970.97;10482634;28;20074;-79
2022/06/29 22:48:14;;;;;;;9.32;5.97;;;;;;;16.82;88.77;100972.91;10503165;28;20491;-78
2022/06/29 22:53:15;;;;;;;7.68;6.03;;;;;;;16.80;88.17;100969.31;10524914;28;20070;-79
2022/06/29 22:58:15;;;;;;;7.90;6.57;;;;;;;16.71;89.36;100967.34;10524406;28;20118;-78
2022/06/29 23:03:16;;;;;;;7.57;5.93;;;;;;;16.49;89.67;100963.28;10525272;28;20044;-79
2022/06/29 23:08:17;;;;;;;7.63;6.68;;;;;;;16.32;90.72;100956.69;10506434;28;20070;-79
2022/06/29 23:13:17;;;;;;;13.43;7.25;;;;;;;16.11;91.65;100958.81;10481552;28;20036;-78
2022/06/29 23:18:18;;;;;;;10.57;6.55;;;;;;;16.02;93.26;100957.69;10483707;28;20064;-77
2022/06/29 23:23:18;;;;;;;12.32;6.80;;;;;;;15.88;93.00;100950.28;10480490;28;20476;-79
2022/06/29 23:28:19;;;;;;;11.27;7.63;;;;;;;15.77;94.32;100943.78;10500992;28;20558;-79
2022/06/29 23:33:20;;;;;;;9.43;7.03;;;;;;;15.65;95.19;100941.69;10520365;28;20080;-79
2022/06/29 23:38:20;;;;;;;11.90;8.20;;;;;;;15.60;96.35;100930.09;10484016;28;20051;-80
2022/06/29 23:43:21;;;;;;;9.30;7.35;;;;;;;15.55;97.72;100927.34;10481440;28;20044;-79